This is the latest recevied weather packets stored in our database for station/object LA3SP-1. If no packets are shown the sender has not sent any weather packets the latest 10 day(s).
| Time | Temp. | Humidity | Pressure | Rain* | Wind** | Luminosity | Snow |
|---|---|---|---|---|---|---|---|
| 1777505573 | 6.11° C | 48% | 1024.8 hPa | 0 mm | - | - | - |
| 1777504971 | 5.56° C | 50% | 1024.7 hPa | 0 mm | - | - | - |
| 1777504370 | 6.11° C | 49% | 1024.8 hPa | 0 mm | - | - | - |
| 1777503768 | 6.11° C | 49% | 1024.7 hPa | 0 mm | - | - | - |
| 1777502566 | 7.22° C | 49% | 1024.7 hPa | 0 mm | - | - | - |
| 1777501964 | 7.22° C | 49% | 1024.7 hPa | 0 mm | - | - | - |
| 1777501363 | 7.22° C | 49% | 1024.6 hPa | 0 mm | - | - | - |
| 1777500761 | 7.22° C | 50% | 1024.5 hPa | 0 mm | - | - | - |
| 1777500160 | 7.22° C | 52% | 1024.6 hPa | 0 mm | - | - | - |
| 1777499558 | 6.67° C | 54% | 1024.6 hPa | 0 mm | - | - | - |
| 1777498957 | 6.67° C | 55% | 1024.7 hPa | 0 mm | - | - | - |
| 1777498355 | 6.67° C | 55% | 1024.6 hPa | 0 mm | - | - | - |
| 1777497153 | 6.67° C | 57% | 1024.5 hPa | 0 mm | - | - | - |
| 1777496552 | 6.67° C | 58% | 1024.6 hPa | 0 mm | - | - | - |
| 1777495950 | 6.11° C | 60% | 1024.7 hPa | 0 mm | - | - | - |
| 1777495349 | 6.11° C | 62% | 1024.8 hPa | 0 mm | - | - | - |
| 1777494747 | 5.56° C | 64% | 1024.7 hPa | 0 mm | - | - | - |
| 1777494146 | 3.89° C | 66% | 1024.4 hPa | 0 mm | - | - | - |
| 1777492943 | 4.44° C | 67% | 1024.3 hPa | 0 mm | - | - | - |
| 1777492342 | 4.44° C | 66% | 1024.3 hPa | 0 mm | - | - | - |
| 1777491740 | 4.44° C | 66% | 1024.3 hPa | 0 mm | - | - | - |
| 1777491139 | 4.44° C | 66% | 1024.2 hPa | 0 mm | - | - | - |
| 1777490537 | 5° C | 65% | 1024.2 hPa | 0 mm | - | - | - |
| 1777489936 | 5.56° C | 63% | 1024.1 hPa | 0 mm | - | - | - |
| 1777488734 | 6.67° C | 60% | 1024.2 hPa | 0 mm | - | - | - |
* Rain latest 24 hours (hover to see other rain measurements)
** Current wind speed in m/s (hover to see current wind gust speed)